createdAt,value
2019-05-23T00:00:01.529Z,3.52
2019-05-23T00:02:35.255Z,3.50
2019-05-23T00:05:10.661Z,3.35
2019-05-23T00:07:42.771Z,3.60
2019-05-23T00:10:14.022Z,3.80
2019-05-23T00:12:49.766Z,3.50
2019-05-23T00:15:26.232Z,3.60
2019-05-23T00:17:56.554Z,3.52
2019-05-23T00:20:25.660Z,3.67
2019-05-23T00:22:54.787Z,3.65
2019-05-23T00:25:24.713Z,3.60
2019-05-23T00:27:53.983Z,4.40
2019-05-23T00:30:24.693Z,3.67
2019-05-23T00:32:56.605Z,3.83
2019-05-23T00:35:28.410Z,3.60
2019-05-23T00:37:59.007Z,3.58
2019-05-23T00:40:28.940Z,3.42
2019-05-23T00:42:58.234Z,3.67
2019-05-23T00:45:27.354Z,3.80
2019-05-23T00:47:57.339Z,3.58
2019-05-23T00:50:27.846Z,4.08
2019-05-23T00:52:57.838Z,3.58
2019-05-23T00:55:27.668Z,3.52
2019-05-23T00:57:58.710Z,3.42
2019-05-23T01:00:29.790Z,3.33
2019-05-23T01:02:59.375Z,3.70
2019-05-23T01:05:29.871Z,3.85
2019-05-23T01:07:59.769Z,4.03
2019-05-23T01:10:29.322Z,4.00
2019-05-23T01:12:59.028Z,3.83
2019-05-23T01:15:29.534Z,3.85
2019-05-23T01:17:59.483Z,3.95
2019-05-23T01:20:30.461Z,3.77
2019-05-23T01:23:01.130Z,3.70
2019-05-23T01:25:31.307Z,3.90
2019-05-23T01:28:00.945Z,3.62
2019-05-23T01:30:31.669Z,4.00
2019-05-23T01:33:02.076Z,4.15
2019-05-23T01:35:33.185Z,3.72
2019-05-23T01:38:04.259Z,3.58
2019-05-23T01:40:33.705Z,3.80
2019-05-23T01:43:04.468Z,3.20
2019-05-23T01:45:35.002Z,3.30
2019-05-23T01:48:05.761Z,3.52
2019-05-23T01:50:35.249Z,3.92
2019-05-23T01:53:04.978Z,3.60
2019-05-23T01:55:35.306Z,3.40
2019-05-23T01:58:05.821Z,3.30
2019-05-23T02:00:35.735Z,3.65
2019-05-23T02:03:05.335Z,3.80
2019-05-23T02:05:34.500Z,3.77
2019-05-23T02:08:04.350Z,3.60
2019-05-23T02:10:33.409Z,3.62
2019-05-23T02:13:03.248Z,3.72
2019-05-23T02:15:33.029Z,3.83
2019-05-23T02:18:03.262Z,3.72
2019-05-23T02:20:33.804Z,3.45
2019-05-23T02:23:03.022Z,3.60
2019-05-23T02:25:33.658Z,3.27
2019-05-23T02:28:03.205Z,4.05
2019-05-23T02:30:35.435Z,3.25
2019-05-23T02:33:03.763Z,3.50
2019-05-23T02:35:33.644Z,3.20
2019-05-23T02:38:23.193Z,3.47
2019-05-23T02:41:02.868Z,3.72
2019-05-23T02:43:36.228Z,3.33
2019-05-23T02:46:23.892Z,3.42
2019-05-23T02:48:56.162Z,3.58
2019-05-23T02:51:29.261Z,3.87
2019-05-23T02:53:59.831Z,3.75
2019-05-23T02:56:31.970Z,3.62
2019-05-23T02:59:07.745Z,3.70
2019-05-23T03:01:50.264Z,3.98
2019-05-23T03:04:21.015Z,3.80
2019-05-23T03:06:51.859Z,4.20
2019-05-23T03:09:23.883Z,3.72
2019-05-23T03:11:56.892Z,3.90
2019-05-23T03:14:27.170Z,4.00
2019-05-23T03:17:00.138Z,4.12
2019-05-23T03:19:38.689Z,4.17
2019-05-23T03:22:42.633Z,4.33
2019-05-23T03:25:29.771Z,4.40
2019-05-23T03:28:02.201Z,4.53
2019-05-23T03:30:38.770Z,4.55
2019-05-23T03:33:10.522Z,4.45
2019-05-23T03:35:43.998Z,4.22
2019-05-23T03:38:14.118Z,4.30
2019-05-23T03:40:43.289Z,4.45
2019-05-23T03:43:12.846Z,4.20
2019-05-23T03:45:44.894Z,4.72
2019-05-23T03:48:13.966Z,4.12
2019-05-23T03:50:44.564Z,4.03
2019-05-23T03:53:13.530Z,4.15
2019-05-23T03:55:42.643Z,4.55
2019-05-23T03:58:13.471Z,4.65
2019-05-23T04:00:45.025Z,4.22
2019-05-23T04:03:14.530Z,3.98
2019-05-23T04:05:43.849Z,4.50
2019-05-23T04:08:12.949Z,4.45
2019-05-23T04:10:42.339Z,4.60
2019-05-23T04:13:11.555Z,4.50
2019-05-23T04:15:40.855Z,5.00
2019-05-23T04:18:10.096Z,4.97
2019-05-23T04:20:39.237Z,4.40
2019-05-23T04:23:09.154Z,4.75
2019-05-23T04:25:38.124Z,5.00
2019-05-23T04:28:07.343Z,5.30
2019-05-23T04:30:36.413Z,5.08
2019-05-23T04:33:05.524Z,4.78
2019-05-23T04:35:35.368Z,5.00
2019-05-23T04:38:05.933Z,5.25
2019-05-23T04:40:36.696Z,5.47
2019-05-23T04:43:05.830Z,6.03
2019-05-23T04:45:36.567Z,5.37
2019-05-23T04:48:05.539Z,5.10
2019-05-23T04:50:35.877Z,5.40
2019-05-23T04:53:06.978Z,5.35
2019-05-23T04:55:38.124Z,5.70
2019-05-23T04:58:07.741Z,5.37
2019-05-23T05:00:36.824Z,5.70
2019-05-23T05:03:06.771Z,5.97
2019-05-23T05:05:36.270Z,6.00
2019-05-23T05:08:05.868Z,6.30
2019-05-23T05:10:35.797Z,6.97
2019-05-23T05:13:05.630Z,6.15
2019-05-23T05:15:35.651Z,7.12
2019-05-23T05:18:06.458Z,6.97
2019-05-23T05:20:36.397Z,6.78
2019-05-23T05:23:05.427Z,6.20
2019-05-23T05:25:34.913Z,6.65
2019-05-23T05:28:04.575Z,6.55
2019-05-23T05:30:33.861Z,6.22
2019-05-23T05:33:03.561Z,6.03
2019-05-23T05:35:34.077Z,5.85
2019-05-23T05:38:03.299Z,5.83
2019-05-23T05:40:33.635Z,6.00
2019-05-23T05:43:04.680Z,5.70
2019-05-23T05:45:34.147Z,5.83
2019-05-23T05:48:04.242Z,5.83
2019-05-23T05:50:34.147Z,5.60
2019-05-23T05:53:03.791Z,5.72
2019-05-23T05:55:32.815Z,5.87
2019-05-23T05:58:02.703Z,5.65
2019-05-23T06:00:37.223Z,5.92
2019-05-23T06:03:06.494Z,5.92
2019-05-23T06:05:41.333Z,6.08
2019-05-23T06:08:12.018Z,6.20
2019-05-23T06:10:41.222Z,5.50
2019-05-23T06:13:10.724Z,6.78
2019-05-23T06:15:40.411Z,7.92
2019-05-23T06:18:09.741Z,7.53
2019-05-23T06:20:43.213Z,8.48
2019-05-23T06:23:12.924Z,8.70
2019-05-23T06:25:42.093Z,8.70
2019-05-23T06:28:12.031Z,9.63
2019-05-23T06:30:41.740Z,8.10
2019-05-23T06:33:22.816Z,8.18
2019-05-23T06:35:42.301Z,7.75
2019-05-23T06:38:11.457Z,8.60
2019-05-23T06:40:40.825Z,7.65
2019-05-23T06:43:10.634Z,8.85
2019-05-23T06:45:42.462Z,8.28
2019-05-23T06:48:14.049Z,8.75
2019-05-23T06:50:43.256Z,8.28
2019-05-23T06:53:12.588Z,7.72
2019-05-23T06:55:41.746Z,8.20
2019-05-23T06:58:12.158Z,8.15
2019-05-23T07:00:42.812Z,8.03
2019-05-23T07:03:12.547Z,7.85
2019-05-23T07:05:42.067Z,8.23
2019-05-23T07:08:11.194Z,7.42
2019-05-23T07:10:43.485Z,7.20
2019-05-23T07:13:13.374Z,7.12
2019-05-23T07:15:43.793Z,7.70
2019-05-23T07:18:14.288Z,6.92
2019-05-23T07:20:43.450Z,6.70
2019-05-23T07:23:13.231Z,6.90
2019-05-23T07:25:42.676Z,6.80
2019-05-23T07:28:12.044Z,6.47
2019-05-23T07:30:41.259Z,7.00
2019-05-23T07:33:10.709Z,7.33
2019-05-23T07:35:40.151Z,7.75
2019-05-23T07:38:09.180Z,8.73
2019-05-23T07:40:38.375Z,8.48
2019-05-23T07:43:08.333Z,8.38
2019-05-23T07:45:42.207Z,8.45
2019-05-23T07:48:12.220Z,7.92
2019-05-23T07:50:42.031Z,7.28
2019-05-23T07:53:13.202Z,7.05
2019-05-23T07:55:44.124Z,6.87
2019-05-23T07:58:14.498Z,7.03
2019-05-23T08:00:45.705Z,6.83
2019-05-23T08:03:15.885Z,6.72
2019-05-23T08:05:46.188Z,6.10
2019-05-23T08:08:15.828Z,5.78
2019-05-23T08:10:46.416Z,5.70
2019-05-23T08:13:15.501Z,5.95
2019-05-23T08:15:45.311Z,5.60
2019-05-23T08:18:14.543Z,5.42
2019-05-23T08:20:45.132Z,5.67
2019-05-23T08:23:16.174Z,5.10
2019-05-23T08:25:45.217Z,5.70
2019-05-23T08:28:14.556Z,5.67
2019-05-23T08:30:44.145Z,5.80
2019-05-23T08:33:14.239Z,5.03
2019-05-23T08:35:44.861Z,5.62
2019-05-23T08:38:14.877Z,4.80
2019-05-23T08:40:44.783Z,5.60
2019-05-23T08:43:14.534Z,4.60
2019-05-23T08:45:44.545Z,4.83
2019-05-23T08:48:13.836Z,4.47
2019-05-23T08:50:42.869Z,4.78
2019-05-23T08:53:12.227Z,5.37
2019-05-23T08:55:41.190Z,5.40
2019-05-23T08:58:12.084Z,5.70
2019-05-23T09:00:43.203Z,5.55
2019-05-23T09:03:12.845Z,5.50
2019-05-23T09:05:42.685Z,5.90
2019-05-23T09:08:16.350Z,6.65
2019-05-23T09:10:43.761Z,6.22
2019-05-23T09:13:12.860Z,6.30
2019-05-23T09:15:42.030Z,5.95
2019-05-23T09:18:11.688Z,6.15
2019-05-23T09:20:41.150Z,6.00
2019-05-23T09:23:10.848Z,6.20
2019-05-23T09:25:40.084Z,5.47
2019-05-23T09:28:09.799Z,4.85
2019-05-23T09:30:38.780Z,4.40
2019-05-23T09:33:08.362Z,4.12
2019-05-23T09:35:37.553Z,4.00
2019-05-23T09:38:06.842Z,3.80
2019-05-23T09:40:36.450Z,3.20
2019-05-23T09:43:07.357Z,4.28
2019-05-23T09:45:36.552Z,4.70
2019-05-23T09:48:05.586Z,4.22
2019-05-23T09:50:34.971Z,4.12
2019-05-23T09:53:04.265Z,3.40
2019-05-23T09:55:33.862Z,2.90
2019-05-23T09:58:03.003Z,2.50
2019-05-23T10:00:32.697Z,2.65
2019-05-23T10:03:01.964Z,2.47
2019-05-23T10:05:42.788Z,3.37
2019-05-23T10:08:02.519Z,4.20
2019-05-23T10:10:32.469Z,3.70
2019-05-23T10:13:01.599Z,4.58
2019-05-23T10:15:40.360Z,3.50
2019-05-23T10:18:11.131Z,3.58
2019-05-23T10:20:40.689Z,3.60
2019-05-23T10:23:09.734Z,4.05
2019-05-23T10:25:38.699Z,3.85
2019-05-23T10:28:07.769Z,2.77
2019-05-23T10:30:37.156Z,2.05
2019-05-23T10:33:12.238Z,2.40
2019-05-23T10:35:38.529Z,2.20
2019-05-23T10:38:07.664Z,1.80
2019-05-23T10:40:37.360Z,1.42
2019-05-23T10:43:06.564Z,1.77
2019-05-23T10:45:36.178Z,1.98
2019-05-23T10:48:07.040Z,1.70
2019-05-23T10:50:44.773Z,1.85
2019-05-23T10:53:06.951Z,2.20
2019-05-23T10:55:35.971Z,2.08
2019-05-23T10:58:05.804Z,1.87
2019-05-23T11:00:35.730Z,2.33
2019-05-23T11:03:06.268Z,2.30
2019-05-23T11:05:35.350Z,2.10
2019-05-23T11:08:06.100Z,1.98
2019-05-23T11:10:35.360Z,2.30
2019-05-23T11:13:04.769Z,2.47
2019-05-23T11:15:34.303Z,2.30
2019-05-23T11:18:04.210Z,2.85
2019-05-23T11:20:36.043Z,2.62
2019-05-23T11:23:04.999Z,4.33
2019-05-23T11:25:35.421Z,2.72
2019-05-23T11:28:04.628Z,2.27
2019-05-23T11:30:35.870Z,2.20
2019-05-23T11:33:05.078Z,1.90
2019-05-23T11:35:34.579Z,2.40
2019-05-23T11:38:03.599Z,2.30
2019-05-23T11:40:33.936Z,3.00
2019-05-23T11:43:03.426Z,2.10
2019-05-23T11:45:34.272Z,2.15
2019-05-23T11:48:03.650Z,2.20
2019-05-23T11:50:33.274Z,1.98
2019-05-23T11:53:02.573Z,2.12
2019-05-23T11:55:32.496Z,1.80
2019-05-23T11:58:02.323Z,1.50
2019-05-23T12:00:51.235Z,1.85
2019-05-23T12:03:20.885Z,1.70
2019-05-23T12:05:51.645Z,1.82
2019-05-23T12:08:20.868Z,1.70
2019-05-23T12:10:50.358Z,1.82
2019-05-23T12:13:19.883Z,2.10
2019-05-23T12:15:49.825Z,1.70
2019-05-23T12:18:19.032Z,2.22
2019-05-23T12:20:48.066Z,1.92
2019-05-23T12:23:17.245Z,1.90
2019-05-23T12:25:46.298Z,2.40
2019-05-23T12:28:16.695Z,1.90
2019-05-23T12:30:46.340Z,2.08
2019-05-23T12:33:15.469Z,2.25
2019-05-23T12:35:44.570Z,2.15
2019-05-23T12:38:13.667Z,2.00
2019-05-23T12:40:42.645Z,2.42
2019-05-23T12:43:11.750Z,1.82
2019-05-23T12:45:40.873Z,2.00
2019-05-23T12:48:17.313Z,1.95
2019-05-23T12:50:51.769Z,2.33
2019-05-23T12:53:18.888Z,2.23
2019-05-23T12:55:48.397Z,2.08
2019-05-23T12:58:18.742Z,2.05
2019-05-23T13:00:49.462Z,2.60
2019-05-23T13:03:18.715Z,2.42
2019-05-23T13:05:48.113Z,2.77
2019-05-23T13:08:18.153Z,2.67
2019-05-23T13:10:47.162Z,2.60
2019-05-23T13:13:16.708Z,2.83
2019-05-23T13:15:45.992Z,3.15
2019-05-23T13:18:15.040Z,3.08
2019-05-23T13:20:44.448Z,2.98
2019-05-23T13:23:20.615Z,3.62
2019-05-23T13:25:45.759Z,3.17
2019-05-23T13:28:14.924Z,4.12
2019-05-23T13:30:44.167Z,3.85
2019-05-23T13:33:13.492Z,4.30
2019-05-23T13:35:43.205Z,3.47
2019-05-23T13:38:12.286Z,3.87
2019-05-23T13:40:42.037Z,3.80
2019-05-23T13:43:11.103Z,4.30
2019-05-23T13:45:40.057Z,5.15
2019-05-23T13:48:09.110Z,4.80
2019-05-23T13:50:38.206Z,4.50
2019-05-23T13:53:07.471Z,4.70
2019-05-23T13:55:38.187Z,5.65
2019-05-23T13:58:07.271Z,4.67
2019-05-23T14:00:37.114Z,4.40
2019-05-23T14:03:08.142Z,5.00
2019-05-23T14:05:37.683Z,4.62
2019-05-23T14:08:12.874Z,5.22
2019-05-23T14:10:38.848Z,4.60
2019-05-23T14:13:07.924Z,4.78
2019-05-23T14:15:41.569Z,4.83
2019-05-23T14:18:12.645Z,4.80
2019-05-23T14:20:41.664Z,5.45
2019-05-23T14:23:27.131Z,4.40
2019-05-23T14:25:57.733Z,4.05
2019-05-23T14:28:26.980Z,4.37
2019-05-23T14:31:15.771Z,5.65
2019-05-23T14:33:46.438Z,4.70
2019-05-23T14:36:22.996Z,4.20
2019-05-23T14:38:53.748Z,4.03
2019-05-23T14:41:22.914Z,4.47
2019-05-23T14:43:54.209Z,3.33
2019-05-23T14:46:23.498Z,3.30
2019-05-23T14:48:54.177Z,3.58
2019-05-23T14:51:31.152Z,4.58
2019-05-23T14:54:04.339Z,4.20
2019-05-23T14:56:34.941Z,3.50
2019-05-23T14:59:04.305Z,3.40
2019-05-23T15:01:35.109Z,4.08
2019-05-23T15:04:05.167Z,3.87
2019-05-23T15:06:34.868Z,3.35
2019-05-23T15:09:06.020Z,3.60
2019-05-23T15:11:35.906Z,3.90
2019-05-23T15:14:05.608Z,3.65
2019-05-23T15:16:35.072Z,4.20
2019-05-23T15:19:05.152Z,3.30
2019-05-23T15:21:34.259Z,3.90
2019-05-23T15:24:03.559Z,3.60
2019-05-23T15:26:33.531Z,3.10
2019-05-23T15:29:03.082Z,4.08
2019-05-23T15:31:32.466Z,3.40
2019-05-23T15:34:01.569Z,3.47
2019-05-23T15:36:31.164Z,3.40
2019-05-23T15:39:09.615Z,2.92
2019-05-23T15:41:30.962Z,3.33
2019-05-23T15:43:59.957Z,3.33
2019-05-23T15:46:29.468Z,3.02
2019-05-23T15:48:59.726Z,3.45
2019-05-23T15:51:30.881Z,3.40
2019-05-23T15:54:04.098Z,4.05
2019-05-23T15:56:37.729Z,3.77
2019-05-23T16:01:42.802Z,4.10
2019-05-23T16:04:13.907Z,3.45
2019-05-23T16:06:43.598Z,3.42
2019-05-23T16:09:28.802Z,4.35
2019-05-23T16:11:44.469Z,3.27
2019-05-23T16:14:13.428Z,4.25
2019-05-23T16:16:42.664Z,4.17
2019-05-23T16:19:12.533Z,3.77
2019-05-23T16:21:41.860Z,3.83
2019-05-23T16:24:11.758Z,3.05
2019-05-23T16:26:40.786Z,2.83
2019-05-23T16:29:10.896Z,2.40
2019-05-23T16:31:40.523Z,3.37
2019-05-23T16:34:09.616Z,2.83
2019-05-23T16:36:38.622Z,3.15
2019-05-23T16:39:08.789Z,2.90
2019-05-23T16:41:37.770Z,2.77
2019-05-23T16:44:07.174Z,3.10
2019-05-23T16:46:36.316Z,2.83
2019-05-23T16:49:05.789Z,2.55
2019-05-23T16:51:34.893Z,3.17
2019-05-23T16:54:05.522Z,3.00
2019-05-23T16:56:38.726Z,2.77
2019-05-23T16:59:09.574Z,3.10
2019-05-23T17:01:56.078Z,3.50
2019-05-23T17:04:21.197Z,3.33
2019-05-23T17:07:10.268Z,3.58
2019-05-23T17:09:40.983Z,3.47
2019-05-23T17:12:27.841Z,3.90
2019-05-23T17:15:07.534Z,3.30
2019-05-23T17:18:02.204Z,3.15
2019-05-23T17:20:38.792Z,3.27
2019-05-23T17:23:09.486Z,2.98
2019-05-23T17:25:57.026Z,2.85
2019-05-23T17:28:30.835Z,3.22
2019-05-23T17:31:01.583Z,2.70
2019-05-23T17:33:32.584Z,2.70
2019-05-23T17:36:02.471Z,2.75
2019-05-23T17:38:31.857Z,3.92
2019-05-23T17:41:01.300Z,3.30
2019-05-23T17:43:30.741Z,2.95
2019-05-23T17:45:59.931Z,3.17
2019-05-23T17:48:29.272Z,2.90
2019-05-23T17:50:58.437Z,3.17
2019-05-23T17:53:27.845Z,3.10
2019-05-23T17:55:57.486Z,2.87
2019-05-23T17:58:26.782Z,2.80
2019-05-23T18:00:57.645Z,2.60
2019-05-23T18:03:27.060Z,2.67
2019-05-23T18:05:56.883Z,2.50
2019-05-23T18:08:26.773Z,2.52
2019-05-23T18:10:56.020Z,3.00
2019-05-23T18:13:25.378Z,2.17
2019-05-23T18:15:54.950Z,2.27
2019-05-23T18:18:24.615Z,2.20
2019-05-23T18:20:54.021Z,2.52
2019-05-23T18:23:23.867Z,2.20
2019-05-23T18:25:53.052Z,2.20
2019-05-23T18:28:22.715Z,2.17
2019-05-23T18:30:53.351Z,2.10
2019-05-23T18:33:23.563Z,2.20
2019-05-23T18:35:52.913Z,2.10
2019-05-23T18:38:21.884Z,1.90
2019-05-23T18:41:02.934Z,2.12
2019-05-23T18:43:24.671Z,1.90
2019-05-23T18:45:55.639Z,2.05
2019-05-23T18:48:25.134Z,1.90
2019-05-23T18:50:54.221Z,1.92
2019-05-23T18:53:23.344Z,1.80
2019-05-23T18:55:52.309Z,1.98
2019-05-23T18:58:21.746Z,1.98
2019-05-23T19:01:00.656Z,1.90
2019-05-23T19:03:30.728Z,2.40
2019-05-23T19:06:00.597Z,2.20
2019-05-23T19:08:29.695Z,2.15
2019-05-23T19:11:00.692Z,2.55
2019-05-23T19:13:29.857Z,2.92
2019-05-23T19:15:58.882Z,2.20
2019-05-23T19:18:28.016Z,2.75
2019-05-23T19:20:58.377Z,2.70
2019-05-23T19:23:27.894Z,2.30
2019-05-23T19:25:57.524Z,2.10
2019-05-23T19:28:27.328Z,2.22
2019-05-23T19:30:58.024Z,2.80
2019-05-23T19:33:27.150Z,2.35
2019-05-23T19:35:56.556Z,2.50
2019-05-23T19:38:26.152Z,3.25
2019-05-23T19:40:55.778Z,3.40
2019-05-23T19:43:25.400Z,3.35
2019-05-23T19:45:54.468Z,3.22
2019-05-23T19:48:23.975Z,2.83
2019-05-23T19:50:54.712Z,2.75
2019-05-23T19:53:23.836Z,3.05
2019-05-23T19:55:53.508Z,4.78
2019-05-23T19:58:23.033Z,4.60
2019-05-23T20:00:52.087Z,5.87
2019-05-23T20:03:21.306Z,4.25
2019-05-23T20:05:52.564Z,3.87
2019-05-23T20:08:22.130Z,3.67
2019-05-23T20:10:51.436Z,3.33
2019-05-23T20:13:20.664Z,3.87
2019-05-23T20:15:50.068Z,3.87
2019-05-23T20:18:19.256Z,3.70
2019-05-23T20:20:48.623Z,3.20
2019-05-23T20:23:17.821Z,3.05
2019-05-23T20:25:46.781Z,3.70
2019-05-23T20:28:16.203Z,3.87
2019-05-23T20:30:50.381Z,3.30
2019-05-23T20:33:19.435Z,3.15
2019-05-23T20:35:48.829Z,3.02
2019-05-23T20:38:18.362Z,2.80
2019-05-23T20:40:47.327Z,2.70
2019-05-23T20:43:16.794Z,3.17
2019-05-23T20:45:45.910Z,2.70
2019-05-23T20:48:15.501Z,2.70
2019-05-23T20:50:44.602Z,2.72
2019-05-23T20:53:13.638Z,2.65
2019-05-23T20:55:42.860Z,2.85
2019-05-23T20:58:11.882Z,3.00
2019-05-23T21:00:48.849Z,2.87
2019-05-23T21:03:17.862Z,2.70
2019-05-23T21:05:46.886Z,2.98
2019-05-23T21:08:15.945Z,3.12
2019-05-23T21:10:47.812Z,3.22
2019-05-23T21:13:17.800Z,3.22
2019-05-23T21:15:47.722Z,3.27
2019-05-23T21:18:16.898Z,2.77
2019-05-23T21:20:45.984Z,3.05
2019-05-23T21:23:15.108Z,3.10
2019-05-23T21:25:46.688Z,3.20
2019-05-23T21:28:15.647Z,3.20
2019-05-23T21:30:44.637Z,3.00
2019-05-23T21:33:13.676Z,2.92
2019-05-23T21:35:42.802Z,3.10
2019-05-23T21:38:11.823Z,3.30
2019-05-23T21:40:43.190Z,3.30
2019-05-23T21:43:12.380Z,3.25
2019-05-23T21:45:42.175Z,3.37
2019-05-23T21:48:11.400Z,2.95
2019-05-23T21:50:40.659Z,3.20
2019-05-23T21:53:09.850Z,3.42
2019-05-23T21:55:42.991Z,3.55
2019-05-23T21:58:13.481Z,3.72
2019-05-23T22:01:01.425Z,3.72
2019-05-23T22:03:32.040Z,3.58
2019-05-23T22:06:02.110Z,3.83
2019-05-23T22:08:31.192Z,3.90
2019-05-23T22:11:00.155Z,4.42
2019-05-23T22:13:29.538Z,3.75
2019-05-23T22:15:58.525Z,3.98
2019-05-23T22:18:28.046Z,4.30
2019-05-23T22:20:57.086Z,3.90
2019-05-23T22:23:26.033Z,4.05
2019-05-23T22:25:54.991Z,4.10
2019-05-23T22:28:24.127Z,3.85
2019-05-23T22:30:53.086Z,3.72
2019-05-23T22:33:26.979Z,3.60
2019-05-23T22:35:56.102Z,3.90
2019-05-23T22:38:25.221Z,4.33
2019-05-23T22:40:54.237Z,3.87
2019-05-23T22:43:23.208Z,4.15
2019-05-23T22:45:52.188Z,4.12
2019-05-23T22:48:21.217Z,4.37
2019-05-23T22:50:50.292Z,4.50
2019-05-23T22:53:19.481Z,4.20
2019-05-23T22:55:48.520Z,4.33
2019-05-23T22:58:17.493Z,4.03
2019-05-23T23:00:48.203Z,4.37
2019-05-23T23:03:17.413Z,4.47
2019-05-23T23:05:46.370Z,4.78
2019-05-23T23:08:16.725Z,4.90
2019-05-23T23:10:46.153Z,4.60
2019-05-23T23:13:15.656Z,4.30
2019-05-23T23:15:44.713Z,4.80
2019-05-23T23:18:13.902Z,4.90
2019-05-23T23:20:45.617Z,5.15
2019-05-23T23:23:13.676Z,4.50
2019-05-23T23:25:42.978Z,4.90
2019-05-23T23:28:12.009Z,4.75
2019-05-23T23:30:42.609Z,4.92
2019-05-23T23:33:11.566Z,5.10
2019-05-23T23:35:40.620Z,5.12
2019-05-23T23:38:09.770Z,5.40
2019-05-23T23:40:38.758Z,5.10
2019-05-23T23:43:07.958Z,5.12
2019-05-23T23:45:55.009Z,4.92
2019-05-23T23:48:42.123Z,5.12
2019-05-23T23:51:29.278Z,4.75
2019-05-23T23:54:16.364Z,5.08
2019-05-23T23:57:03.196Z,4.95
2019-05-23T23:59:31.519Z,5.00
